Time;durP1;ratioP1;P1;durP2;ratioP2;P2;SDS_P1;SDS_P2;PMS_P1;PMS_P2;Temp;Humidity;BMP_temperature;BMP_pressure;BME280_temperature;BME280_humidity;BME280_pressure;Samples;Min_cycle;Max_cycle;Signal;HPM_P1;HPM_P2
2021/08/21 00:00:55;;;;;;;17.20;15.50;;;;;;;20.53;100.00;99704.36;1615886;86;21138;-61
2021/08/21 00:03:22;;;;;;;18.43;16.53;;;;;;;20.56;100.00;99718.37;1606716;86;21097;-65
2021/08/21 00:05:48;;;;;;;21.07;18.97;;;;;;;20.54;100.00;99733.75;1584897;87;21807;-65
2021/08/21 00:08:15;;;;;;;28.73;25.97;;;;;;;20.60;100.00;99737.98;1584597;87;21466;-59
2021/08/21 00:10:43;;;;;;;30.83;27.93;;;;;;;20.72;100.00;99751.52;1587993;87;21221;-63
2021/08/21 00:13:10;;;;;;;26.60;23.83;;;;;;;20.71;100.00;99758.67;1555419;89;21003;-60
2021/08/21 00:15:38;;;;;;;20.83;18.37;;;;;;;20.63;100.00;99753.35;1583196;87;21219;-66
2021/08/21 00:18:06;;;;;;;15.57;13.93;;;;;;;20.65;100.00;99748.61;1585478;87;20950;-61
2021/08/21 00:20:34;;;;;;;16.57;14.77;;;;;;;20.76;100.00;99742.80;1586023;87;21103;-70
2021/08/21 00:23:01;;;;;;;16.00;13.70;;;;;;;20.80;100.00;99730.62;1586612;87;21159;-69
2021/08/21 00:25:27;;;;;;;13.47;11.53;;;;;;;20.92;100.00;99727.72;1586554;87;21544;-68
2021/08/21 00:27:53;;;;;;;13.30;11.97;;;;;;;20.89;100.00;99727.70;1585596;87;21093;-70
2021/08/21 00:30:20;;;;;;;13.77;12.37;;;;;;;20.80;100.00;99725.86;1587759;89;21217;-70
2021/08/21 00:32:46;;;;;;;13.43;12.07;;;;;;;20.76;100.00;99730.06;1586830;87;21030;-70
2021/08/21 00:35:13;;;;;;;14.50;13.00;;;;;;;20.80;100.00;99721.35;1587714;87;21606;-66
2021/08/21 00:37:40;;;;;;;14.10;12.00;;;;;;;20.73;100.00;99720.81;1585727;87;21128;-69
2021/08/21 00:40:07;;;;;;;13.97;11.67;;;;;;;20.69;100.00;99730.88;1588435;87;21099;-68
2021/08/21 00:42:35;;;;;;;13.63;12.23;;;;;;;20.58;100.00;99733.49;1588435;87;21806;-66
2021/08/21 00:45:04;;;;;;;14.30;11.87;;;;;;;20.51;100.00;99734.27;1587167;87;21098;-68
2021/08/21 00:47:31;;;;;;;13.97;12.10;;;;;;;20.52;100.00;99729.23;1557491;89;21579;-67
2021/08/21 00:49:58;;;;;;;14.13;12.33;;;;;;;20.78;100.00;99710.21;1589279;87;21650;-64
2021/08/21 00:52:31;;;;;;;14.63;11.17;;;;;;;20.83;100.00;99710.73;1589783;88;21127;-63
2021/08/21 00:54:58;;;;;;;14.67;12.37;;;;;;;20.84;100.00;99709.70;1587615;87;21146;-64
2021/08/21 00:57:26;;;;;;;14.27;12.17;;;;;;;20.68;100.00;99719.99;1588512;87;21633;-64
2021/08/21 00:59:53;;;;;;;13.63;12.20;;;;;;;20.62;100.00;99722.64;1588050;87;21770;-63
2021/08/21 01:02:20;;;;;;;14.03;11.87;;;;;;;20.53;100.00;99718.92;1549581;90;21657;-64
2021/08/21 01:04:52;;;;;;;14.30;12.80;;;;;;;20.47;100.00;99715.96;1595361;87;20959;-63
2021/08/21 01:07:26;;;;;;;14.45;12.60;;;;;;;20.60;100.00;99705.41;1623039;86;21165;-64
2021/08/21 01:09:54;;;;;;;16.73;13.17;;;;;;;20.67;100.00;99695.36;1576839;89;21069;-63
2021/08/21 01:12:22;;;;;;;14.10;12.60;;;;;;;20.62;100.00;99698.81;1574400;89;20958;-64
2021/08/21 01:14:50;;;;;;;13.47;12.00;;;;;;;20.75;100.00;99702.00;1567764;89;21029;-63
2021/08/21 01:17:19;;;;;;;13.10;11.33;;;;;;;20.83;100.00;99712.06;1573233;90;21066;-64
2021/08/21 01:19:49;;;;;;;15.50;10.63;;;;;;;20.87;100.00;99727.69;1574798;89;21204;-62
2021/08/21 01:22:22;;;;;;;12.60;11.13;;;;;;;20.88;100.00;99731.42;1574907;89;20990;-61
2021/08/21 01:24:50;;;;;;;12.23;10.27;;;;;;;20.73;100.00;99749.16;1573154;89;22433;-61
2021/08/21 01:27:28;;;;;;;11.60;9.50;;;;;;;20.72;100.00;99760.78;1578248;89;20963;-64
2021/08/21 01:30:12;;;;;;;10.13;8.83;;;;;;;20.67;100.00;99767.41;1573662;89;21026;-63
2021/08/21 01:32:40;;;;;;;11.23;9.60;;;;;;;20.55;100.00;99771.08;1574933;90;21162;-61
2021/08/21 01:35:09;;;;;;;12.07;9.30;;;;;;;20.48;100.00;99775.79;1576291;89;21565;-64
2021/08/21 01:37:35;;;;;;;11.67;8.53;;;;;;;20.56;100.00;99779.81;1578598;89;21496;-60
2021/08/21 01:40:16;;;;;;;8.40;6.90;;;;;;;20.24;100.00;99766.18;1596711;87;21097;-61
2021/08/21 01:42:43;;;;;;;9.23;7.67;;;;;;;20.24;100.00;99766.18;1598535;87;21160;-59
2021/08/21 01:45:13;;;;;;;9.80;8.40;;;;;;;20.22;100.00;99769.60;1597916;87;21547;-60
2021/08/21 01:47:41;;;;;;;10.23;9.17;;;;;;;20.16;100.00;99758.21;1598486;87;21072;-62
2021/08/21 01:50:19;;;;;;;14.07;9.87;;;;;;;20.17;100.00;99759.00;1599275;87;21505;-59
2021/08/21 01:52:50;;;;;;;8.90;8.00;;;;;;;20.13;100.00;99765.34;1596383;87;20995;-60
2021/08/21 01:55:31;;;;;;;10.20;7.93;;;;;;;20.15;100.00;99768.53;1598117;87;21094;-59
2021/08/21 01:58:00;;;;;;;8.47;6.83;;;;;;;20.10;100.00;99765.84;1576192;89;21174;-59
2021/08/21 02:00:49;;;;;;;9.10;6.90;;;;;;;20.00;100.00;99764.50;1602419;87;21476;-63
2021/08/21 02:03:18;;;;;;;7.43;6.20;;;;;;;19.96;100.00;99768.67;1599310;87;22495;-59
2021/08/21 02:05:44;;;;;;;8.70;6.00;;;;;;;19.86;100.00;99776.58;1613999;86;20975;-60
2021/08/21 02:08:11;;;;;;;7.97;5.07;;;;;;;19.80;100.00;99781.55;1614444;86;21007;-61
2021/08/21 02:10:39;;;;;;;8.43;6.47;;;;;;;19.68;100.00;99777.78;1616320;86;22334;-60
2021/08/21 02:13:07;;;;;;;9.47;5.73;;;;;;;19.68;100.00;99787.03;1617375;86;20971;-60
2021/08/21 02:15:34;;;;;;;8.37;5.00;;;;;;;19.57;100.00;99791.95;1614370;87;21118;-60
2021/08/21 02:18:02;;;;;;;7.87;5.27;;;;;;;19.39;100.00;99793.13;1615977;86;21577;-61
2021/08/21 02:20:34;;;;;;;6.10;4.80;;;;;;;19.37;100.00;99788.11;1616236;87;21088;-60
2021/08/21 02:23:01;;;;;;;7.23;4.80;;;;;;;19.37;100.00;99788.63;1620732;86;21156;-61
2021/08/21 02:25:31;;;;;;;6.30;4.53;;;;;;;19.36;100.00;99791.02;1578351;88;21817;-59
2021/08/21 02:28:06;;;;;;;6.30;4.80;;;;;;;19.45;100.00;99792.12;1618592;86;21019;-61
2021/08/21 02:30:26;;;;;;;6.47;5.30;;;;;;;19.50;100.00;99786.88;1620232;86;20978;-60
2021/08/21 02:32:53;;;;;;;11.23;6.10;;;;;;;19.50;100.00;99784.75;1615049;86;21118;-63
2021/08/21 02:35:19;;;;;;;7.80;5.27;;;;;;;19.49;100.00;99781.32;1616778;86;21129;-61
2021/08/21 02:37:46;;;;;;;10.83;5.63;;;;;;;19.56;100.00;99783.23;1612369;86;21105;-63
2021/08/21 02:40:14;;;;;;;10.47;6.33;;;;;;;19.44;100.00;99795.83;1616737;86;21063;-61
2021/08/21 02:42:42;;;;;;;13.30;6.27;;;;;;;19.42;100.00;99786.81;1569607;88;20996;-60
2021/08/21 02:45:10;;;;;;;9.70;5.93;;;;;;;19.38;100.00;99793.66;1572075;88;21438;-61
2021/08/21 02:47:37;;;;;;;7.30;5.20;;;;;;;19.39;100.00;99797.09;1612725;86;21748;-60
2021/08/21 02:50:04;;;;;;;8.30;4.83;;;;;;;19.38;100.00;99789.69;1613536;86;21117;-60
2021/08/21 02:52:30;;;;;;;7.80;4.20;;;;;;;19.25;100.00;99795.94;1615220;86;22513;-58
2021/08/21 02:54:59;;;;;;;9.37;5.13;;;;;;;19.29;100.00;99795.70;1613796;87;21062;-61
2021/08/21 02:57:26;;;;;;;7.50;5.13;;;;;;;19.28;100.00;99806.80;1618930;86;20983;-58
2021/08/21 02:59:54;;;;;;;6.90;5.10;;;;;;;19.27;100.00;99805.72;1611619;86;21247;-60
2021/08/21 03:02:22;;;;;;;10.80;5.60;;;;;;;19.29;100.00;99799.67;1693618;81;21088;-59
2021/08/21 03:04:49;;;;;;;7.27;5.27;;;;;;;19.34;100.00;99803.67;1733462;81;21061;-60
2021/08/21 03:07:17;;;;;;;8.00;4.70;;;;;;;19.29;100.00;99812.88;1734592;82;20884;-60
2021/08/21 03:09:47;;;;;;;8.70;5.83;;;;;;;19.29;100.00;99822.13;1734543;82;21512;-60
2021/08/21 03:12:14;;;;;;;9.80;6.23;;;;;;;19.34;100.00;99834.85;1733766;82;21077;-59
2021/08/21 03:14:53;;;;;;;7.00;4.87;;;;;;;19.53;100.00;99829.20;1733262;82;20927;-61
2021/08/21 03:17:19;;;;;;;6.40;4.80;;;;;;;19.50;100.00;99828.38;1713886;81;21907;-61
2021/08/21 03:19:48;;;;;;;8.27;4.07;;;;;;;19.58;100.00;99831.88;1734936;81;21145;-63
2021/08/21 03:22:15;;;;;;;7.10;4.53;;;;;;;19.37;100.00;99832.24;1734066;82;20995;-60
2021/08/21 03:24:42;;;;;;;6.80;4.93;;;;;;;19.38;100.00;99828.55;1735157;81;21137;-60
2021/08/21 03:27:09;;;;;;;8.60;4.90;;;;;;;19.41;100.00;99822.77;1733923;82;21042;-61
2021/08/21 03:29:36;;;;;;;7.27;5.13;;;;;;;19.39;100.00;99820.34;1729973;81;21011;-59
2021/08/21 03:32:06;;;;;;;8.37;5.50;;;;;;;19.41;100.00;99812.19;1732949;82;21180;-60
2021/08/21 03:34:34;;;;;;;8.20;5.73;;;;;;;19.56;100.00;99806.23;1734521;80;20983;-60
2021/08/21 03:37:02;;;;;;;7.80;6.53;;;;;;;19.47;100.00;99808.52;1734108;82;21172;-60
2021/08/21 03:39:29;;;;;;;9.17;5.23;;;;;;;19.51;100.00;99810.95;1731472;82;20939;-60
2021/08/21 03:41:56;;;;;;;7.80;5.43;;;;;;;19.50;100.00;99801.41;1736415;80;21351;-60
2021/08/21 03:44:24;;;;;;;9.43;6.03;;;;;;;19.52;100.00;99803.29;1732838;82;21054;-60
2021/08/21 03:46:53;;;;;;;9.77;5.10;;;;;;;19.52;100.00;99799.33;1735669;82;21037;-60
2021/08/21 03:49:20;;;;;;;10.67;6.73;;;;;;;19.48;100.00;99803.52;1741265;80;21155;-61
2021/08/21 03:51:47;;;;;;;8.67;6.10;;;;;;;19.43;100.00;99799.50;1735687;80;22112;-61
2021/08/21 03:54:14;;;;;;;8.60;6.20;;;;;;;19.38;100.00;99804.23;1733157;81;21584;-59
2021/08/21 03:56:41;;;;;;;8.03;5.83;;;;;;;19.45;100.00;99797.41;1731199;81;21531;-60
2021/08/21 03:59:07;;;;;;;8.87;7.50;;;;;;;19.49;100.00;99799.83;1733862;81;20991;-62
2021/08/21 04:01:36;;;;;;;9.73;6.70;;;;;;;19.51;100.00;99804.84;1727607;81;22809;-60
2021/08/21 04:04:04;;;;;;;8.80;5.67;;;;;;;19.42;100.00;99805.31;1697913;83;21540;-60
2021/08/21 04:06:33;;;;;;;8.77;6.03;;;;;;;19.41;100.00;99798.44;1731965;81;21025;-60
2021/08/21 04:09:00;;;;;;;10.47;6.30;;;;;;;19.53;100.00;99800.91;1734564;81;21002;-62
2021/08/21 04:11:28;;;;;;;9.27;6.40;;;;;;;19.52;100.00;99799.85;1732898;81;21085;-60
2021/08/21 04:14:10;;;;;;;8.80;6.60;;;;;;;19.58;100.00;99808.87;1735678;81;21003;-60
2021/08/21 04:16:37;;;;;;;8.73;6.20;;;;;;;19.42;100.00;99817.20;1734573;81;20935;-62
2021/08/21 04:19:04;;;;;;;8.90;6.50;;;;;;;19.47;100.00;99825.70;1738866;81;20924;-60
2021/08/21 04:21:35;;;;;;;9.17;6.10;;;;;;;19.35;100.00;99827.72;1738484;80;20948;-60
2021/08/21 04:24:02;;;;;;;9.00;7.10;;;;;;;19.28;100.00;99835.88;1718612;82;21046;-61
2021/08/21 04:26:29;;;;;;;10.13;6.87;;;;;;;19.30;100.00;99840.89;1736692;81;22315;-60
2021/08/21 04:28:57;;;;;;;9.53;7.30;;;;;;;19.19;100.00;99844.75;1738091;81;21481;-60
2021/08/21 04:31:24;;;;;;;9.87;7.17;;;;;;;19.25;100.00;99846.14;1738547;82;21546;-60
2021/08/21 04:33:51;;;;;;;10.10;6.70;;;;;;;19.23;100.00;99845.58;1738764;81;20994;-62
2021/08/21 04:36:18;;;;;;;9.53;7.53;;;;;;;19.33;100.00;99853.61;1737576;81;21043;-59
2021/08/21 04:38:46;;;;;;;9.20;8.17;;;;;;;19.43;100.00;99845.26;1738913;82;21496;-59
2021/08/21 04:41:13;;;;;;;13.07;9.70;;;;;;;19.57;100.00;99837.69;1738134;81;21489;-60
2021/08/21 04:43:40;;;;;;;11.77;9.17;;;;;;;19.60;100.00;99829.25;1737444;82;21359;-59
2021/08/21 04:46:07;;;;;;;9.67;8.73;;;;;;;19.67;100.00;99830.41;1738272;81;20927;-60
2021/08/21 04:48:35;;;;;;;11.47;9.13;;;;;;;19.91;100.00;99836.11;1738961;82;20983;-59
2021/08/21 04:51:02;;;;;;;10.63;9.53;;;;;;;20.00;100.00;99829.31;1738095;82;21081;-59
2021/08/21 04:53:30;;;;;;;11.63;10.10;;;;;;;20.22;100.00;99840.27;1738087;82;21275;-58
2021/08/21 04:55:56;;;;;;;12.53;11.10;;;;;;;20.44;100.00;99832.17;1738232;82;21374;-58
2021/08/21 04:58:24;;;;;;;10.73;9.47;;;;;;;20.75;100.00;99836.55;1737256;81;20943;-58
2021/08/21 05:00:50;;;;;;;11.90;10.70;;;;;;;21.04;100.00;99827.62;1739055;81;21230;-57
2021/08/21 05:03:21;;;;;;;12.65;10.35;;;;;;;21.45;100.00;99833.00;1740442;82;21138;-58
2021/08/21 05:05:48;;;;;;;13.47;12.07;;;;;;;21.51;100.00;99834.58;1746967;80;21034;-58
2021/08/21 05:08:16;;;;;;;11.63;10.43;;;;;;;21.60;100.00;99827.69;1746696;80;21085;-58
2021/08/21 05:10:46;;;;;;;;;;;;;;;21.61;100.00;99831.13;1747256;81;21041;-58
2021/08/21 05:13:12;;;;;;;15.83;13.47;;;;;;;21.70;100.00;99828.73;1746063;81;20132;-58
2021/08/21 05:15:40;;;;;;;16.07;13.67;;;;;;;21.68;100.00;99825.57;1746897;80;21134;-58
2021/08/21 05:18:32;;;;;;;16.70;14.37;;;;;;;21.70;100.00;99830.06;1743295;80;20919;-59
2021/08/21 05:21:08;;;;;;;16.80;15.00;;;;;;;21.65;100.00;99833.52;1743646;81;21047;-58
2021/08/21 05:23:35;;;;;;;18.13;15.27;;;;;;;21.61;100.00;99835.91;1743567;80;20952;-58
2021/08/21 05:26:02;;;;;;;18.37;16.27;;;;;;;21.57;100.00;99840.69;1742640;81;20903;-58
2021/08/21 05:28:29;;;;;;;17.77;14.83;;;;;;;21.56;100.00;99842.55;1743944;80;21223;-58
2021/08/21 05:30:55;;;;;;;16.30;14.50;;;;;;;21.36;100.00;99843.84;1743775;81;20987;-58
2021/08/21 05:33:22;;;;;;;15.43;13.83;;;;;;;21.27;100.00;99846.20;1742389;80;21003;-59
2021/08/21 05:35:49;;;;;;;15.33;13.83;;;;;;;21.17;100.00;99846.19;1745663;80;22283;-59
2021/08/21 05:38:16;;;;;;;15.03;13.37;;;;;;;21.16;100.00;99842.48;1744347;81;21006;-59
2021/08/21 05:40:43;;;;;;;15.77;14.27;;;;;;;21.10;100.00;99840.34;1743391;81;22384;-59
2021/08/21 05:43:12;;;;;;;16.00;14.43;;;;;;;21.08;100.00;99845.91;1741682;81;20911;-59
2021/08/21 05:45:38;;;;;;;15.37;13.97;;;;;;;21.11;100.00;99842.74;1742430;81;21528;-58
2021/08/21 05:48:06;;;;;;;14.70;13.20;;;;;;;21.17;100.00;99841.41;1743125;81;21357;-59
2021/08/21 05:50:35;;;;;;;15.43;13.93;;;;;;;21.29;100.00;99848.08;1744498;80;21465;-59
2021/08/21 05:53:03;;;;;;;15.20;13.70;;;;;;;21.19;100.00;99841.96;1719844;82;21143;-59
2021/08/21 05:55:31;;;;;;;15.80;14.33;;;;;;;21.23;100.00;99847.80;1742168;80;21530;-59
2021/08/21 05:58:02;;;;;;;17.30;15.60;;;;;;;21.37;100.00;99854.20;1744884;80;20975;-58
2021/08/21 06:00:30;;;;;;;16.57;14.90;;;;;;;21.42;100.00;99850.76;1741160;80;20970;-59
2021/08/21 06:02:57;;;;;;;15.80;14.30;;;;;;;21.33;100.00;99851.03;1736763;81;22553;-59
2021/08/21 06:05:23;;;;;;;17.43;15.73;;;;;;;21.54;100.00;99851.82;1739418;82;21191;-59
2021/08/21 06:07:52;;;;;;;19.03;17.03;;;;;;;21.55;100.00;99852.08;1742499;81;20967;-59
2021/08/21 06:10:24;;;;;;;21.93;18.32;;;;;;;21.78;100.00;99850.73;1738383;82;21015;-59
2021/08/21 06:12:50;;;;;;;19.13;17.20;;;;;;;21.86;100.00;99846.25;1743120;81;20942;-59
2021/08/21 06:15:17;;;;;;;21.10;19.00;;;;;;;21.79;100.00;99847.84;1739967;81;21117;-59
2021/08/21 06:17:43;;;;;;;18.20;16.33;;;;;;;22.02;100.00;99843.03;1741274;81;21740;-59
2021/08/21 06:20:11;;;;;;;20.47;17.97;;;;;;;22.16;100.00;99845.93;1741144;81;20979;-59
2021/08/21 06:22:38;;;;;;;18.37;16.47;;;;;;;22.18;100.00;99842.48;1737322;81;20880;-59
2021/08/21 06:25:08;;;;;;;20.00;18.00;;;;;;;22.25;100.00;99841.67;1744012;80;20989;-59
2021/08/21 06:27:34;;;;;;;19.53;17.53;;;;;;;22.66;100.00;99842.86;1733283;80;22345;-59
2021/08/21 06:30:02;;;;;;;19.70;17.70;;;;;;;22.73;100.00;99843.33;1736494;82;21527;-60
2021/08/21 06:32:28;;;;;;;19.20;17.40;;;;;;;22.87;100.00;99849.64;1734232;80;21062;-60
2021/08/21 06:34:55;;;;;;;20.17;17.97;;;;;;;22.91;100.00;99845.90;1736449;81;20978;-60
2021/08/21 06:37:21;;;;;;;19.23;17.37;;;;;;;22.85;100.00;99843.81;1736820;80;20967;-60
2021/08/21 06:39:48;;;;;;;21.07;18.77;;;;;;;22.85;100.00;99845.15;1739941;81;22457;-60
2021/08/21 06:42:14;;;;;;;22.80;19.90;;;;;;;22.87;100.00;99850.97;1738355;81;21221;-62
2021/08/21 06:44:42;;;;;;;20.27;18.43;;;;;;;23.00;100.00;99848.29;1738105;81;21079;-61
2021/08/21 06:47:09;;;;;;;20.67;18.77;;;;;;;23.09;100.00;99845.83;1745997;80;20891;-61
2021/08/21 06:49:35;;;;;;;19.93;17.93;;;;;;;23.20;100.00;99856.66;1738592;81;21472;-62
2021/08/21 06:52:03;;;;;;;21.47;19.27;;;;;;;23.31;100.00;99851.53;1742330;81;21501;-62
2021/08/21 06:54:30;;;;;;;20.10;18.00;;;;;;;23.59;100.00;99849.19;1737327;82;21088;-60
2021/08/21 06:56:57;;;;;;;22.67;20.47;;;;;;;23.87;100.00;99854.30;1745593;80;22460;-63
2021/08/21 06:59:23;;;;;;;20.43;18.53;;;;;;;23.97;100.00;99849.64;1736825;82;21027;-64
2021/08/21 07:01:50;;;;;;;21.70;19.63;;;;;;;24.15;100.00;99845.48;1742857;80;21041;-65
2021/08/21 07:04:16;;;;;;;21.37;19.37;;;;;;;24.39;100.00;99845.49;1740988;80;21097;-66
2021/08/21 07:06:44;;;;;;;21.10;18.90;;;;;;;24.65;100.00;99839.86;1738809;80;20966;-65
2021/08/21 07:09:11;;;;;;;20.80;18.73;;;;;;;25.04;100.00;99840.94;1745351;80;20982;-67
2021/08/21 07:11:39;;;;;;;19.60;17.60;;;;;;;25.45;100.00;99835.77;1735974;81;20939;-60
2021/08/21 07:14:06;;;;;;;18.20;16.50;;;;;;;25.97;100.00;99835.72;1740616;80;22614;-66
2021/08/21 07:16:32;;;;;;;20.90;18.67;;;;;;;26.66;100.00;99826.34;1735272;80;21128;-59
2021/08/21 07:19:00;;;;;;;19.52;17.62;;;;;;;27.23;100.00;99818.66;1736049;80;21561;-67
2021/08/21 07:21:27;;;;;;;19.12;17.42;;;;;;;27.78;100.00;99816.25;1727047;80;21522;-67
2021/08/21 07:23:54;;;;;;;17.95;16.35;;;;;;;28.16;100.00;99819.23;1727890;81;21145;-66
2021/08/21 07:26:20;;;;;;;18.25;16.45;;;;;;;28.41;100.00;99804.88;1725062;81;21019;-67
2021/08/21 07:28:47;;;;;;;16.90;15.30;;;;;;;28.45;100.00;99804.48;1735352;82;21524;-66
2021/08/21 07:31:13;;;;;;;17.07;15.58;;;;;;;28.45;100.00;99804.48;1737697;81;21137;-68
2021/08/21 07:33:40;;;;;;;17.25;15.58;;;;;;;28.59;100.00;99804.59;1735408;81;21018;-68
2021/08/21 07:36:08;;;;;;;17.10;15.40;;;;;;;28.79;100.00;99804.55;1728520;82;21005;-65
2021/08/21 07:38:34;;;;;;;18.00;16.48;;;;;;;29.11;100.00;99797.13;1731793;80;22100;-62
2021/08/21 07:41:00;;;;;;;17.77;16.17;;;;;;;29.24;100.00;99798.83;1728098;81;21015;-65
2021/08/21 07:43:27;;;;;;;15.30;13.90;;;;;;;29.31;100.00;99799.13;1736081;81;21137;-66
2021/08/21 07:45:54;;;;;;;15.18;13.90;;;;;;;29.85;100.00;99809.98;1734286;81;21061;-59
2021/08/21 07:48:21;;;;;;;12.40;11.30;;;;;;;30.23;100.00;99801.38;1733590;81;21087;-64
2021/08/21 07:50:49;;;;;;;11.10;10.00;;;;;;;30.56;100.00;99803.91;1735286;82;20968;-63
2021/08/21 07:53:16;;;;;;;10.35;9.35;;;;;;;30.82;100.00;99807.78;1742025;80;21093;-66
2021/08/21 07:55:43;;;;;;;10.40;9.40;;;;;;;31.38;100.00;99808.23;1750013;80;21134;-65
2021/08/21 07:58:10;;;;;;;10.58;9.63;;;;;;;31.92;100.00;99808.10;1738185;80;21045;-63
2021/08/21 08:00:37;;;;;;;10.93;9.10;;;;;;;32.38;99.09;99812.21;1738812;81;20891;-64
2021/08/21 08:03:04;;;;;;;11.22;10.23;;;;;;;32.73;96.16;99810.91;1740946;81;21126;-63
2021/08/21 08:05:30;;;;;;;11.90;9.58;;;;;;;32.78;95.65;99815.52;1738498;82;21077;-64
2021/08/21 08:07:57;;;;;;;9.45;8.55;;;;;;;33.14;90.85;99815.16;1738140;81;21863;-64
2021/08/21 08:10:25;;;;;;;11.12;8.58;;;;;;;33.62;84.19;99811.42;1738677;81;21006;-58
2021/08/21 08:12:53;;;;;;;10.32;9.18;;;;;;;34.24;74.28;99806.88;1737412;81;21042;-61
2021/08/21 08:15:21;;;;;;;11.10;10.00;;;;;;;34.72;66.54;99804.83;1738403;81;21061;-59
2021/08/21 08:17:48;;;;;;;10.05;9.15;;;;;;;35.05;60.17;99807.05;1738345;81;21011;-59
2021/08/21 08:20:14;;;;;;;10.15;9.08;;;;;;;35.13;55.20;99801.97;1738633;81;22204;-61
2021/08/21 08:22:43;;;;;;;9.38;8.58;;;;;;;35.00;54.65;99804.03;1738099;80;21484;-58
2021/08/21 08:25:10;;;;;;;9.08;8.18;;;;;;;34.70;55.82;99811.15;1738105;80;21137;-59
2021/08/21 08:27:37;;;;;;;8.98;8.18;;;;;;;34.59;56.35;99810.96;1747695;80;20935;-58
2021/08/21 08:30:05;;;;;;;10.10;9.10;;;;;;;34.77;55.58;99811.30;1733081;80;20928;-59
2021/08/21 08:32:32;;;;;;;9.25;8.35;;;;;;;35.09;56.80;99805.19;1726203;80;21159;-58
2021/08/21 08:34:58;;;;;;;9.33;8.43;;;;;;;35.41;53.21;99804.95;1729289;81;21072;-58
2021/08/21 08:37:27;;;;;;;9.45;8.50;;;;;;;35.55;49.81;99804.66;1742488;80;20991;-58
2021/08/21 08:39:53;;;;;;;8.83;8.00;;;;;;;35.42;46.75;99800.55;1741111;80;21682;-60
2021/08/21 08:42:21;;;;;;;9.43;8.53;;;;;;;35.41;49.60;99811.73;1733942;81;20983;-57
2021/08/21 08:44:49;;;;;;;10.13;9.13;;;;;;;35.83;47.81;99807.02;1734851;81;20971;-59
2021/08/21 08:47:17;;;;;;;9.13;8.23;;;;;;;36.20;45.82;99808.36;1735198;81;20923;-59
2021/08/21 08:49:48;;;;;;;9.55;8.65;;;;;;;36.13;45.79;99810.97;1732756;81;20966;-60
2021/08/21 08:52:18;;;;;;;13.18;9.98;;;;;;;36.25;45.09;99811.52;1734262;81;20942;-58
2021/08/21 08:54:45;;;;;;;10.90;9.13;;;;;;;36.32;45.30;99806.77;1733800;81;20921;-58
2021/08/21 08:57:33;;;;;;;11.90;10.65;;;;;;;36.22;42.89;99804.72;1733746;81;21469;-59
2021/08/21 09:00:01;;;;;;;11.53;9.45;;;;;;;36.19;44.03;99800.02;1732964;81;20879;-60
2021/08/21 09:02:41;;;;;;;10.50;9.50;;;;;;;36.17;44.19;99801.73;1732527;81;43378;-60
2021/08/21 09:05:12;;;;;;;10.30;8.98;;;;;;;36.05;44.17;99799.23;1734555;82;21105;-61
2021/08/21 09:07:56;;;;;;;11.25;10.25;;;;;;;35.97;44.39;99801.03;1734327;81;21066;-59
2021/08/21 09:10:28;;;;;;;11.60;10.40;;;;;;;35.68;42.83;99803.87;1732107;80;21208;-60
2021/08/21 09:13:07;;;;;;;11.60;10.53;;;;;;;34.96;44.55;99793.67;1736245;80;21038;-60
2021/08/21 09:15:37;;;;;;;11.10;9.95;;;;;;;34.18;46.18;99796.91;1729462;81;21002;-58
2021/08/21 09:18:20;;;;;;;10.98;9.95;;;;;;;33.58;50.65;99797.61;1733089;81;21077;-60
2021/08/21 09:21:02;;;;;;;14.65;10.13;;;;;;;33.53;57.01;99801.36;1732460;82;21015;-60
2021/08/21 09:23:35;;;;;;;10.25;9.18;;;;;;;33.60;53.78;99796.67;1730121;81;21130;-60
2021/08/21 09:26:12;;;;;;;10.63;9.73;;;;;;;33.64;53.73;99784.84;1733268;81;21056;-60
2021/08/21 09:28:42;;;;;;;9.85;8.85;;;;;;;33.81;54.75;99794.50;1734042;81;20928;-58
2021/08/21 09:31:14;;;;;;;10.50;9.45;;;;;;;34.05;52.36;99784.62;1734038;82;22213;-60
2021/08/21 09:33:44;;;;;;;9.58;8.73;;;;;;;34.22;49.09;99791.02;1734565;81;21144;-59
2021/08/21 09:36:12;;;;;;;10.13;9.23;;;;;;;34.09;50.23;99791.67;1733031;81;21116;-60
2021/08/21 09:38:40;;;;;;;11.40;9.23;;;;;;;33.93;49.83;99793.61;1732976;81;21575;-59
2021/08/21 09:41:09;;;;;;;11.55;10.38;;;;;;;33.74;51.47;99794.89;1733481;82;21953;-60
2021/08/21 09:43:37;;;;;;;10.18;9.18;;;;;;;33.57;53.30;99790.64;1732400;81;21068;-59
2021/08/21 09:46:19;;;;;;;9.53;8.63;;;;;;;33.40;52.25;99789.02;1739086;80;21573;-59
2021/08/21 09:49:03;;;;;;;10.60;9.60;;;;;;;32.94;52.99;99792.65;1722747;81;21126;-59
2021/08/21 09:51:32;;;;;;;10.82;9.83;;;;;;;32.55;55.51;99785.58;1737594;80;21086;-60
2021/08/21 09:54:01;;;;;;;9.50;8.65;;;;;;;32.23;54.43;99789.41;1738965;80;21015;-59
2021/08/21 09:56:34;;;;;;;9.45;8.35;;;;;;;31.96;60.16;99782.03;1730997;80;21489;-57
2021/08/21 09:59:04;;;;;;;7.78;6.97;;;;;;;32.20;61.65;99786.08;1702517;80;21077;-60
2021/08/21 10:01:32;;;;;;;7.72;7.03;;;;;;;32.62;54.84;99780.37;1723587;80;21126;-59
2021/08/21 10:04:00;;;;;;;7.50;6.80;;;;;;;33.04;54.35;99779.23;1723294;80;21563;-59
2021/08/21 10:06:26;;;;;;;7.60;6.90;;;;;;;33.59;48.29;99775.62;1734615;80;21113;-57
2021/08/21 10:08:57;;;;;;;8.13;7.35;;;;;;;33.75;47.35;99776.18;1716827;81;21064;-60
2021/08/21 10:11:22;;;;;;;9.03;8.23;;;;;;;33.68;47.17;99774.66;1747219;81;21575;-61
2021/08/21 10:13:51;;;;;;;9.88;8.68;;;;;;;33.51;48.61;99773.11;1740839;80;20991;-61
2021/08/21 10:16:17;;;;;;;9.45;8.65;;;;;;;33.00;49.66;99778.32;1715681;81;21585;-62
2021/08/21 10:18:47;;;;;;;9.55;8.55;;;;;;;32.25;53.89;99780.22;1745048;80;20994;-61
2021/08/21 10:21:15;;;;;;;8.00;7.30;;;;;;;31.83;58.50;99780.45;1744520;80;21129;-61
2021/08/21 10:23:44;;;;;;;8.53;7.72;;;;;;;31.80;60.47;99772.47;1737438;81;21528;-62
2021/08/21 10:26:22;;;;;;;8.93;8.13;;;;;;;32.05;61.22;99771.94;1741347;80;21200;-58
2021/08/21 10:28:49;;;;;;;8.90;8.00;;;;;;;32.31;57.74;99777.49;1744180;80;20966;-61
2021/08/21 10:31:41;;;;;;;9.23;8.33;;;;;;;32.52;56.16;99774.67;1740133;80;21125;-61
2021/08/21 10:34:10;;;;;;;8.70;7.85;;;;;;;32.75;53.71;99774.94;1738311;80;21017;-62
2021/08/21 10:36:52;;;;;;;8.00;7.20;;;;;;;33.10;52.58;99770.51;1740761;79;20999;-63
2021/08/21 10:39:24;;;;;;;8.00;7.28;;;;;;;33.54;51.82;99767.02;1743817;80;21089;-62
2021/08/21 10:41:54;;;;;;;8.03;7.22;;;;;;;33.99;47.54;99763.84;1745589;80;20974;-61
2021/08/21 10:44:47;;;;;;;8.78;7.35;;;;;;;33.95;47.20;99758.90;1738753;80;21017;-61
2021/08/21 10:47:35;;;;;;;8.40;7.60;;;;;;;34.00;45.83;99763.27;1744369;80;20963;-58
2021/08/21 10:50:14;;;;;;;8.18;7.20;;;;;;;34.14;47.44;99765.73;1731466;80;21002;-61
2021/08/21 10:52:59;;;;;;;8.33;7.53;;;;;;;34.13;47.10;99759.30;1734475;80;21142;-61
2021/08/21 10:55:42;;;;;;;8.30;7.50;;;;;;;33.98;47.57;99759.58;1731661;80;21212;-64
2021/08/21 10:58:21;;;;;;;8.03;7.22;;;;;;;33.86;48.97;99759.07;1731719;80;21466;-58
2021/08/21 11:00:50;;;;;;;7.83;7.03;;;;;;;33.93;45.58;99763.08;1741702;80;21363;-59
2021/08/21 11:03:31;;;;;;;7.83;7.03;;;;;;;33.88;44.05;99757.38;1738627;80;20931;-59
2021/08/21 11:06:09;;;;;;;7.90;7.12;;;;;;;33.79;45.35;99754.88;1740042;80;21855;-58
2021/08/21 11:08:44;;;;;;;7.30;6.60;;;;;;;34.12;44.28;99754.46;1743218;82;21382;-59
2021/08/21 11:11:26;;;;;;;8.28;7.47;;;;;;;34.24;41.17;99752.77;1748243;80;21064;-60
2021/08/21 11:14:06;;;;;;;8.68;7.78;;;;;;;34.21;41.99;99756.18;1738025;80;20970;-58
2021/08/21 11:16:54;;;;;;;7.37;6.67;;;;;;;34.08;42.50;99760.36;1742885;80;21109;-59
2021/08/21 11:19:41;;;;;;;8.20;7.40;;;;;;;33.99;43.26;99753.60;1737864;81;21147;-58
2021/08/21 11:22:20;;;;;;;7.85;7.05;;;;;;;34.05;43.81;99755.66;1739248;80;20920;-60
2021/08/21 11:25:00;;;;;;;8.35;7.55;;;;;;;34.16;43.05;99753.76;1739966;80;20987;-59
2021/08/21 11:27:30;;;;;;;7.20;6.40;;;;;;;34.26;41.96;99756.70;1737284;80;28245;-61
2021/08/21 11:30:12;;;;;;;8.40;6.70;;;;;;;34.29;42.42;99760.62;1741998;82;20995;-60